Time;durP1;ratioP1;P1;durP2;ratioP2;P2;SDS_P1;SDS_P2;PMS_P1;PMS_P2;Temp;Humidity;BMP_temperature;BMP_pressure;BME280_temperature;BME280_humidity;BME280_pressure;Samples;Min_cycle;Max_cycle;Signal;HPM_P1;HPM_P2
2023/06/06 00:00:19;;;;;;;3.75;2.80;;;17.00;99.90;;;;;;6061758;23;20442;-81
2023/06/06 00:02:46;;;;;;;3.22;2.72;;;16.90;99.90;;;;;;6060963;23;20382;-79
2023/06/06 00:05:15;;;;;;;2.92;2.63;;;16.90;99.90;;;;;;6062125;23;20438;-81
2023/06/06 00:07:44;;;;;;;2.38;2.17;;;16.80;99.90;;;;;;6060474;23;20714;-80
2023/06/06 00:10:14;;;;;;;3.88;2.90;;;16.80;99.90;;;;;;6063568;23;20869;-79
2023/06/06 00:12:43;;;;;;;2.67;2.47;;;16.80;99.90;;;;;;6060831;23;20383;-80
2023/06/06 00:15:14;;;;;;;2.70;2.40;;;16.70;99.90;;;;;;6063456;23;20398;-81
2023/06/06 00:17:42;;;;;;;2.80;2.40;;;16.70;99.90;;;;;;6061155;23;20660;-79
2023/06/06 00:20:11;;;;;;;3.03;2.45;;;16.70;99.90;;;;;;6061740;23;20381;-80
2023/06/06 00:22:39;;;;;;;2.92;2.63;;;16.70;99.90;;;;;;6060417;23;20408;-81
2023/06/06 00:25:07;;;;;;;2.47;2.28;;;16.70;99.90;;;;;;6063619;23;20458;-79
2023/06/06 00:27:35;;;;;;;3.38;2.30;;;16.70;99.90;;;;;;6061723;23;20383;-80
2023/06/06 00:30:03;;;;;;;3.72;2.35;;;16.60;99.90;;;;;;6061761;23;20379;-80
2023/06/06 00:32:30;;;;;;;3.47;2.15;;;16.50;99.90;;;;;;6061533;23;20391;-80
2023/06/06 00:34:57;;;;;;;2.70;2.40;;;16.50;99.90;;;;;;6062147;23;20389;-79
2023/06/06 00:37:24;;;;;;;2.80;2.42;;;16.50;99.90;;;;;;6062574;23;20379;-79
2023/06/06 00:39:51;;;;;;;2.50;2.30;;;16.50;99.90;;;;;;6062144;23;20383;-79
2023/06/06 00:42:18;;;;;;;2.47;2.28;;;16.40;99.90;;;;;;6061800;23;20876;-79
2023/06/06 00:44:45;;;;;;;2.70;2.20;;;16.40;99.90;;;;;;6060723;23;20406;-79
2023/06/06 00:47:12;;;;;;;2.63;2.03;;;16.40;99.90;;;;;;6061541;23;20387;-79
2023/06/06 00:49:41;;;;;;;1.75;1.52;;;16.40;99.90;;;;;;6060622;23;20452;-78
2023/06/06 00:52:09;;;;;;;1.70;1.60;;;16.30;99.90;;;;;;6062013;23;20383;-79
2023/06/06 00:54:37;;;;;;;2.78;1.60;;;16.30;99.90;;;;;;6061623;23;20446;-79
2023/06/06 00:57:07;;;;;;;3.00;1.70;;;16.30;99.90;;;;;;6060730;23;20438;-79
2023/06/06 00:59:35;;;;;;;2.40;2.10;;;16.30;99.90;;;;;;6061650;23;20379;-79
2023/06/06 01:02:03;;;;;;;2.25;1.83;;;16.30;99.90;;;;;;6059840;23;20713;-73
2023/06/06 02:51:40;;;;;;;1.77;1.67;;;15.40;99.90;;;;;;6032673;23;20387;-74
2023/06/06 02:54:07;;;;;;;2.60;2.40;;;15.30;99.90;;;;;;6032396;23;20384;-74
2023/06/06 02:56:33;;;;;;;2.78;1.98;;;15.30;99.90;;;;;;6031379;23;20453;-74
2023/06/06 02:59:00;;;;;;;2.70;2.10;;;15.20;99.90;;;;;;6033437;23;20905;-79
2023/06/06 03:01:30;;;;;;;4.40;2.38;;;15.20;99.90;;;;;;6033553;23;20411;-79
2023/06/06 03:03:57;;;;;;;1.80;1.70;;;15.20;99.90;;;;;;6033348;23;20442;-79
2023/06/06 03:06:24;;;;;;;2.83;2.33;;;15.20;99.90;;;;;;6032531;23;20412;-79
2023/06/06 03:08:55;;;;;;;3.25;2.47;;;15.20;99.90;;;;;;6057023;23;20877;-80
2023/06/06 03:11:22;;;;;;;3.15;2.13;;;15.20;99.90;;;;;;6032597;23;20623;-79
2023/06/06 03:13:49;;;;;;;2.40;2.17;;;15.10;99.90;;;;;;6033512;23;20472;-80
2023/06/06 03:16:16;;;;;;;3.78;2.80;;;15.10;99.90;;;;;;6034678;23;20719;-79
2023/06/06 03:18:46;;;;;;;2.63;1.95;;;15.10;99.90;;;;;;6032636;23;20391;-79
2023/06/06 03:21:16;;;;;;;2.75;2.45;;;15.00;99.90;;;;;;6032713;23;20775;-80
2023/06/06 03:23:43;;;;;;;1.77;1.67;;;15.00;99.90;;;;;;6032520;23;20385;-80
2023/06/06 03:26:11;;;;;;;1.75;1.60;;;15.10;99.90;;;;;;6033345;23;20400;-80
2023/06/06 03:28:38;;;;;;;4.60;2.88;;;15.10;99.90;;;;;;6032936;23;20389;-80
2023/06/06 03:31:07;;;;;;;2.63;1.98;;;15.10;99.90;;;;;;6033288;23;20706;-79
2023/06/06 03:33:37;;;;;;;2.38;2.17;;;15.10;99.90;;;;;;6032629;23;20416;-80
2023/06/06 03:36:07;;;;;;;2.35;1.73;;;15.10;99.90;;;;;;6032766;23;20728;-80
2023/06/06 03:38:34;;;;;;;1.60;1.50;;;15.20;99.90;;;;;;6032802;23;20380;-80
2023/06/06 03:41:02;;;;;;;1.80;1.70;;;15.20;99.90;;;;;;6056633;23;20416;-80
2023/06/06 03:43:30;;;;;;;3.58;2.40;;;15.20;99.90;;;;;;6033779;23;20879;-80
2023/06/06 03:45:57;;;;;;;2.10;1.80;;;15.20;99.90;;;;;;6032904;23;20384;-79
2023/06/06 03:48:24;;;;;;;2.30;2.10;;;15.20;99.90;;;;;;6032332;23;20723;-79
2023/06/06 03:50:51;;;;;;;2.30;2.10;;;15.30;99.90;;;;;;6032542;23;20389;-80
2023/06/06 03:53:18;;;;;;;5.68;3.22;;;15.30;99.90;;;;;;6033201;23;20396;-80
2023/06/06 03:55:46;;;;;;;2.83;2.63;;;15.30;99.90;;;;;;6032116;23;20719;-80
2023/06/06 03:58:18;;;;;;;3.00;2.70;;;15.40;99.90;;;;;;6034929;23;20723;-80
2023/06/06 04:00:45;;;;;;;2.13;1.92;;;15.40;99.90;;;;;;6032421;23;20428;-79
2023/06/06 04:03:12;;;;;;;2.60;1.80;;;15.50;99.90;;;;;;6034390;23;20385;-80
2023/06/06 04:05:39;;;;;;;1.73;1.63;;;15.50;99.90;;;;;;6034412;23;20414;-79
2023/06/06 04:08:08;;;;;;;2.60;1.97;;;15.60;99.90;;;;;;6032536;23;20464;-80
2023/06/06 04:10:34;;;;;;;2.30;2.10;;;15.60;99.90;;;;;;6033622;23;20393;-80
2023/06/06 04:13:02;;;;;;;1.88;1.77;;;15.70;99.90;;;;;;6032228;23;20499;-79
2023/06/06 04:15:29;;;;;;;2.27;1.83;;;15.70;99.90;;;;;;6031634;23;20452;-79
2023/06/06 04:17:56;;;;;;;4.03;2.87;;;15.70;99.90;;;;;;6033450;23;20469;-79
2023/06/06 04:20:23;;;;;;;3.47;2.10;;;15.80;99.90;;;;;;6031456;23;20389;-79
2023/06/06 04:22:53;;;;;;;2.28;2.08;;;15.80;99.90;;;;;;6033977;23;20439;-79
2023/06/06 04:25:20;;;;;;;2.80;2.00;;;15.80;99.90;;;;;;6032993;23;20396;-79
2023/06/06 04:27:48;;;;;;;1.95;1.75;;;15.80;99.90;;;;;;6032974;23;20744;-79
2023/06/06 04:30:22;;;;;;;4.32;2.25;;;15.80;99.90;;;;;;6032903;23;20420;-79
2023/06/06 04:32:51;;;;;;;3.33;2.20;;;15.90;99.90;;;;;;6055366;23;20393;-79
2023/06/06 04:35:18;;;;;;;3.75;2.67;;;15.90;99.90;;;;;;6033152;23;20395;-79
2023/06/06 04:37:47;;;;;;;3.50;2.70;;;15.90;99.90;;;;;;6031885;23;20661;-79
2023/06/06 04:40:15;;;;;;;3.30;2.10;;;15.90;99.90;;;;;;6032866;23;20720;-79
2023/06/06 04:42:42;;;;;;;3.05;2.20;;;15.90;99.90;;;;;;6031862;23;20432;-79
2023/06/06 04:45:10;;;;;;;4.07;2.38;;;15.90;99.90;;;;;;6032794;23;20404;-80
2023/06/06 04:47:40;;;;;;;2.97;2.07;;;15.90;99.90;;;;;;6032196;23;20384;-79
2023/06/06 04:50:08;;;;;;;1.90;1.80;;;15.90;99.90;;;;;;6032687;23;20405;-79
2023/06/06 04:52:36;;;;;;;1.70;1.60;;;15.90;99.90;;;;;;6056008;23;20376;-79
2023/06/06 04:55:04;;;;;;;3.05;2.05;;;16.00;99.90;;;;;;6032580;23;20381;-79
2023/06/06 04:57:32;;;;;;;2.25;2.15;;;16.00;99.90;;;;;;6032471;23;20457;-79
2023/06/06 05:00:00;;;;;;;2.13;1.92;;;16.00;99.90;;;;;;6031697;23;20491;-80
2023/06/06 05:02:29;;;;;;;2.20;2.00;;;16.10;99.90;;;;;;6031954;23;20388;-79
2023/06/06 05:04:58;;;;;;;2.80;1.97;;;16.10;99.90;;;;;;6031224;23;20887;-79
2023/06/06 05:07:25;;;;;;;3.05;1.98;;;16.20;99.90;;;;;;6034212;23;20739;-79
2023/06/06 05:09:53;;;;;;;2.33;2.13;;;16.20;99.90;;;;;;6031054;23;20377;-78
2023/06/06 05:12:24;;;;;;;2.60;1.90;;;16.20;99.90;;;;;;6031998;23;20395;-78
2023/06/06 05:14:51;;;;;;;2.38;2.10;;;16.20;99.90;;;;;;6030589;23;20388;-79
2023/06/06 05:17:20;;;;;;;3.70;3.10;;;16.30;99.90;;;;;;6032307;23;20509;-79
2023/06/06 05:19:47;;;;;;;3.20;2.83;;;16.30;99.90;;;;;;6030290;23;20419;-79
2023/06/06 05:22:15;;;;;;;4.38;3.05;;;16.30;99.90;;;;;;6032081;23;20397;-78
2023/06/06 05:24:42;;;;;;;2.53;2.33;;;16.30;99.90;;;;;;6031204;23;20385;-79
2023/06/06 05:27:09;;;;;;;5.85;2.92;;;16.30;99.90;;;;;;6032414;23;20483;-79
2023/06/06 05:29:37;;;;;;;2.92;2.47;;;16.30;99.90;;;;;;6031438;23;20388;-79
2023/06/06 05:32:05;;;;;;;2.30;2.10;;;16.30;99.90;;;;;;6034688;23;20452;-78
2023/06/06 05:34:33;;;;;;;2.63;2.43;;;16.30;99.90;;;;;;6033084;23;20392;-79
2023/06/06 05:37:00;;;;;;;5.00;2.83;;;16.30;99.90;;;;;;6035930;23;20389;-78
2023/06/06 05:39:28;;;;;;;2.83;2.63;;;16.30;99.90;;;;;;6033757;23;20415;-77
2023/06/06 05:41:55;;;;;;;3.37;2.83;;;16.30;99.90;;;;;;6033699;23;20451;-78
2023/06/06 05:44:25;;;;;;;2.63;2.40;;;16.30;99.90;;;;;;6057338;23;20444;-78
2023/06/06 05:46:55;;;;;;;3.53;2.85;;;16.40;99.90;;;;;;6034736;23;20685;-79
2023/06/06 05:49:23;;;;;;;3.47;3.15;;;16.40;99.90;;;;;;6035195;23;20385;-78
2023/06/06 05:51:50;;;;;;;2.42;2.22;;;16.40;99.90;;;;;;6033219;23;20384;-78
2023/06/06 05:54:17;;;;;;;3.92;3.50;;;16.40;99.90;;;;;;6057138;23;20388;-78
2023/06/06 05:56:44;;;;;;;3.28;2.60;;;16.50;99.90;;;;;;6032865;23;20395;-78
2023/06/06 05:59:11;;;;;;;2.25;2.03;;;16.60;99.90;;;;;;6033495;23;20471;-78
2023/06/06 06:01:41;;;;;;;2.55;2.33;;;16.60;99.90;;;;;;6056516;23;20437;-79
2023/06/06 06:04:08;;;;;;;2.30;2.08;;;16.70;99.90;;;;;;6033333;23;20384;-77
2023/06/06 06:06:37;;;;;;;3.30;1.88;;;16.80;99.90;;;;;;6032468;23;20455;-78
2023/06/06 06:09:08;;;;;;;2.60;2.10;;;16.80;99.90;;;;;;6033775;23;20799;-78
2023/06/06 06:11:35;;;;;;;1.88;1.70;;;16.90;99.90;;;;;;6031715;23;20749;-78
2023/06/06 06:14:02;;;;;;;2.27;2.00;;;17.00;99.90;;;;;;6034802;23;20380;-78
2023/06/06 06:16:29;;;;;;;1.90;1.70;;;17.00;99.90;;;;;;6033225;23;20723;-78
2023/06/06 06:18:55;;;;;;;2.67;1.70;;;17.10;99.90;;;;;;6032680;23;20381;-78
2023/06/06 06:21:24;;;;;;;4.38;1.73;;;17.10;99.90;;;;;;6032966;23;20389;-78
2023/06/06 06:23:51;;;;;;;2.50;1.77;;;17.20;99.90;;;;;;6032423;23;20385;-78
2023/06/06 06:26:18;;;;;;;2.53;1.67;;;17.30;99.90;;;;;;6033138;23;20468;-77
2023/06/06 06:28:46;;;;;;;1.63;1.53;;;17.30;99.90;;;;;;6032344;23;20465;-78
2023/06/06 06:31:13;;;;;;;1.92;1.42;;;17.30;99.90;;;;;;6032920;23;20389;-78
2023/06/06 06:33:40;;;;;;;2.88;2.33;;;17.40;99.90;;;;;;6032183;23;20884;-77
2023/06/06 06:36:07;;;;;;;2.95;1.90;;;17.50;99.90;;;;;;6034162;23;20912;-78
2023/06/06 06:38:36;;;;;;;2.47;2.03;;;17.50;99.90;;;;;;6034942;23;20856;-78
2023/06/06 06:41:03;;;;;;;2.20;2.00;;;17.60;99.90;;;;;;6032188;23;20381;-78
2023/06/06 06:43:30;;;;;;;2.60;1.70;;;17.70;99.90;;;;;;6033519;23;20452;-78
2023/06/06 06:45:57;;;;;;;3.60;2.05;;;17.80;99.90;;;;;;6032242;23;20385;-79
2023/06/06 06:48:25;;;;;;;4.63;1.85;;;17.80;99.90;;;;;;6034414;23;20396;-78
2023/06/06 06:50:52;;;;;;;1.65;1.55;;;17.80;99.90;;;;;;6031850;23;20384;-78
2023/06/06 06:53:23;;;;;;;3.65;1.52;;;17.90;99.90;;;;;;6056453;23;20853;-78
2023/06/06 06:55:51;;;;;;;2.33;1.33;;;18.00;99.90;;;;;;6033589;23;20446;-79
2023/06/06 06:58:25;;;;;;;1.98;1.50;;;18.00;99.90;;;;;;6033207;23;20993;-78
2023/06/06 07:00:56;;;;;;;3.28;2.08;;;18.10;99.90;;;;;;6032817;23;20383;-78
2023/06/06 07:03:23;;;;;;;2.63;1.77;;;18.20;99.90;;;;;;6034161;23;20696;-79
2023/06/06 07:05:50;;;;;;;1.50;1.40;;;18.20;99.90;;;;;;6032780;23;20400;-79
2023/06/06 07:08:17;;;;;;;2.60;1.50;;;18.30;99.90;;;;;;6034383;23;20716;-78
2023/06/06 07:10:44;;;;;;;2.55;1.67;;;18.30;99.90;;;;;;6032615;23;20384;-79
2023/06/06 07:13:14;;;;;;;2.22;2.03;;;18.40;99.90;;;;;;6033173;23;20436;-79
2023/06/06 07:15:41;;;;;;;1.60;1.50;;;18.60;99.90;;;;;;6034682;23;20428;-79
2023/06/06 07:18:09;;;;;;;2.13;1.90;;;18.60;99.90;;;;;;6033067;23;20897;-79
2023/06/06 07:20:37;;;;;;;2.92;1.98;;;18.70;99.90;;;;;;6034383;23;20388;-79
2023/06/06 07:23:04;;;;;;;2.78;1.92;;;18.90;99.90;;;;;;6032706;23;20379;-79
2023/06/06 07:25:34;;;;;;;2.13;1.70;;;19.10;99.90;;;;;;6033774;23;20389;-79
2023/06/06 07:28:02;;;;;;;1.98;1.58;;;19.20;99.90;;;;;;6009065;23;20381;-79
2023/06/06 07:30:29;;;;;;;1.60;1.10;;;19.40;99.90;;;;;;6057335;23;20407;-79
2023/06/06 07:32:56;;;;;;;1.88;1.10;;;19.60;99.90;;;;;;6032153;23;20389;-79
2023/06/06 07:35:24;;;;;;;1.45;1.17;;;19.70;99.90;;;;;;6033492;23;20380;-79
2023/06/06 07:37:51;;;;;;;1.63;1.27;;;20.10;99.40;;;;;;6032335;23;20388;-80
2023/06/06 07:40:18;;;;;;;1.50;0.90;;;20.30;99.90;;;;;;6033827;23;20436;-80
2023/06/06 07:42:47;;;;;;;2.90;1.40;;;20.40;99.90;;;;;;6032123;23;20397;-80
2023/06/06 07:45:14;;;;;;;1.35;1.02;;;20.40;97.70;;;;;;6033594;23;20385;-79
2023/06/06 07:47:41;;;;;;;2.10;0.93;;;20.50;97.50;;;;;;6034811;23;20389;-79
2023/06/06 07:50:09;;;;;;;2.07;1.63;;;20.70;96.10;;;;;;6031890;23;20440;-80
2023/06/06 07:52:38;;;;;;;3.25;2.05;;;20.70;98.30;;;;;;6008278;23;20381;-79
2023/06/06 07:55:07;;;;;;;2.50;1.92;;;21.00;97.90;;;;;;6032067;23;21900;-79
2023/06/06 07:57:33;;;;;;;3.17;2.88;;;21.20;99.20;;;;;;6057290;23;20460;-80
2023/06/06 08:00:06;;;;;;;3.28;2.70;;;21.50;98.50;;;;;;6032576;23;20444;-80
2023/06/06 08:02:34;;;;;;;4.00;3.00;;;21.60;94.50;;;;;;6032902;23;20667;-80
2023/06/06 08:05:03;;;;;;;3.07;2.40;;;21.70;92.10;;;;;;6033545;23;20421;-80
2023/06/06 08:07:32;;;;;;;4.95;3.72;;;21.70;93.00;;;;;;6034016;23;20389;-80
2023/06/06 08:09:59;;;;;;;4.90;4.40;;;21.90;93.00;;;;;;6032621;23;20879;-80
2023/06/06 08:12:26;;;;;;;4.75;4.03;;;22.00;92.30;;;;;;6032639;23;20380;-79
2023/06/06 08:14:53;;;;;;;4.18;3.78;;;22.20;93.20;;;;;;6031721;23;20395;-80
2023/06/06 08:17:20;;;;;;;4.70;4.20;;;22.30;91.20;;;;;;6032346;23;20445;-80
2023/06/06 08:19:47;;;;;;;4.05;3.65;;;22.20;90.00;;;;;;6055982;23;20385;-80
2023/06/06 08:22:14;;;;;;;5.83;5.23;;;22.20;90.30;;;;;;6056044;23;20380;-80
2023/06/06 08:24:42;;;;;;;5.57;4.95;;;22.30;89.80;;;;;;6033748;23;20882;-80
2023/06/06 08:27:10;;;;;;;5.68;4.38;;;22.40;89.80;;;;;;6031963;23;20381;-80
2023/06/06 08:29:37;;;;;;;5.43;3.85;;;22.50;81.20;;;;;;6033107;23;20869;-80
2023/06/06 08:32:06;;;;;;;4.05;3.58;;;22.60;84.60;;;;;;6032078;23;20451;-80
2023/06/06 08:34:34;;;;;;;4.55;3.60;;;22.80;92.70;;;;;;6032409;23;20381;-80
2023/06/06 08:37:01;;;;;;;5.07;4.00;;;22.90;87.70;;;;;;6031767;23;20764;-80
2023/06/06 08:39:28;;;;;;;4.90;4.50;;;22.90;85.10;;;;;;6032473;23;20385;-80
2023/06/06 08:41:56;;;;;;;4.70;4.20;;;23.00;79.40;;;;;;6031948;23;20404;-80
2023/06/06 08:44:24;;;;;;;4.30;3.90;;;22.90;83.20;;;;;;6032515;23;20372;-80
2023/06/06 08:46:53;;;;;;;4.10;3.70;;;22.90;81.40;;;;;;6032555;23;20421;-80
2023/06/06 08:49:20;;;;;;;6.95;4.75;;;23.00;82.70;;;;;;6031833;23;20388;-80
2023/06/06 08:51:48;;;;;;;5.03;4.53;;;23.10;85.20;;;;;;6032384;23;20760;-80
2023/06/06 08:54:20;;;;;;;6.32;5.72;;;23.20;83.70;;;;;;6055779;23;20852;-80
2023/06/06 08:56:48;;;;;;;6.30;5.70;;;23.30;84.60;;;;;;6056028;23;20787;-80
2023/06/06 08:59:16;;;;;;;6.88;6.18;;;23.30;83.10;;;;;;6031908;23;20449;-79
2023/06/06 09:01:44;;;;;;;5.65;5.15;;;23.20;80.20;;;;;;6032275;23;20387;-80
2023/06/06 09:04:15;;;;;;;7.25;5.88;;;23.10;78.90;;;;;;6032103;23;20385;-79
2023/06/06 09:06:45;;;;;;;9.50;6.70;;;22.90;79.30;;;;;;6032028;23;20545;-79
2023/06/06 09:09:13;;;;;;;10.40;7.32;;;22.80;77.10;;;;;;6055725;23;20441;-80
2023/06/06 09:11:40;;;;;;;6.68;6.03;;;22.60;80.70;;;;;;6032073;23;20388;-81
2023/06/06 09:14:09;;;;;;;8.50;6.95;;;22.60;89.40;;;;;;6031460;23;20464;-81
2023/06/06 09:16:38;;;;;;;7.55;6.75;;;22.70;89.40;;;;;;6032581;23;20764;-80
2023/06/06 09:19:08;;;;;;;6.63;5.90;;;23.00;79.00;;;;;;6033137;23;20380;-80
2023/06/06 09:21:36;;;;;;;7.17;6.47;;;23.20;83.70;;;;;;6032307;23;20385;-81
2023/06/06 09:24:04;;;;;;;6.55;5.80;;;23.40;80.90;;;;;;6031984;23;20419;-81
2023/06/06 09:26:33;;;;;;;9.05;6.97;;;23.70;72.30;;;;;;6032699;23;20377;-80
2023/06/06 09:29:16;;;;;;;7.63;6.30;;;23.90;69.10;;;;;;6032461;23;20377;-80
2023/06/06 09:31:43;;;;;;;6.82;6.22;;;23.80;72.70;;;;;;6032379;23;20385;-81
2023/06/06 09:34:11;;;;;;;6.13;5.53;;;23.90;72.00;;;;;;6031439;23;20392;-80
2023/06/06 09:36:41;;;;;;;6.10;5.60;;;24.00;67.80;;;;;;6034386;23;20413;-81
2023/06/06 09:39:13;;;;;;;7.97;7.18;;;24.10;71.70;;;;;;6031483;23;20380;-80
2023/06/06 09:41:48;;;;;;;8.18;7.25;;;24.20;73.00;;;;;;6032846;23;20381;-81
2023/06/06 09:44:23;;;;;;;8.93;8.03;;;24.30;71.00;;;;;;6031303;23;20465;-81
2023/06/06 09:47:01;;;;;;;6.82;6.22;;;24.20;67.70;;;;;;6032479;23;20780;-81
2023/06/06 09:49:36;;;;;;;5.82;5.22;;;24.20;69.20;;;;;;6034009;23;20492;-80
2023/06/06 09:52:05;;;;;;;6.15;5.25;;;24.20;70.70;;;;;;6037415;23;20462;-80
2023/06/06 09:54:32;;;;;;;6.18;5.57;;;24.30;65.00;;;;;;6037104;23;20484;-81
2023/06/06 09:57:03;;;;;;;6.80;6.10;;;24.10;66.40;;;;;;6037100;23;20401;-80
2023/06/06 09:59:30;;;;;;;7.05;6.32;;;24.10;66.90;;;;;;6036202;23;20421;-82
2023/06/06 10:02:04;;;;;;;6.77;5.97;;;24.20;68.20;;;;;;6061230;23;20410;-80
2023/06/06 10:04:35;;;;;;;5.32;4.82;;;24.60;69.30;;;;;;6036301;23;20383;-80
2023/06/06 10:07:03;;;;;;;7.57;6.67;;;24.80;63.70;;;;;;6013542;23;20846;-81
2023/06/06 10:09:32;;;;;;;6.50;5.90;;;24.90;64.60;;;;;;6036318;23;20383;-81
2023/06/06 10:12:00;;;;;;;7.50;6.30;;;24.90;64.40;;;;;;6014293;23;20387;-81
2023/06/06 10:14:28;;;;;;;7.68;6.95;;;24.70;62.60;;;;;;6036045;23;20406;-81
2023/06/06 10:16:55;;;;;;;8.00;7.20;;;24.60;64.50;;;;;;6037039;23;20387;-80
2023/06/06 10:19:25;;;;;;;6.80;6.10;;;24.30;63.30;;;;;;6037280;23;20375;-80
2023/06/06 10:21:53;;;;;;;6.83;6.23;;;24.10;67.00;;;;;;6038648;23;20412;-80
2023/06/06 10:24:20;;;;;;;5.93;5.40;;;24.10;68.20;;;;;;6037931;23;20387;-80
2023/06/06 10:27:21;;;;;;;6.70;6.10;;;24.30;67.90;;;;;;6038610;23;20480;-80
2023/06/06 10:30:01;;;;;;;6.20;5.53;;;24.70;64.60;;;;;;6023501;23;20379;-80
2023/06/06 10:33:06;;;;;;;7.40;6.67;;;24.90;62.60;;;;;;6038216;23;20383;-80
2023/06/06 10:35:34;;;;;;;6.72;6.03;;;25.20;59.90;;;;;;5975165;23;20419;-80
2023/06/06 10:38:07;;;;;;;5.70;4.15;;;25.30;61.00;;;;;;6000557;23;20393;-80
2023/06/06 10:41:23;;;;;;;4.87;4.47;;;25.40;58.10;;;;;;6037914;23;20388;-80
2023/06/06 10:43:50;;;;;;;6.10;5.50;;;25.50;57.20;;;;;;6033820;23;20378;-80
2023/06/06 10:46:17;;;;;;;5.68;5.18;;;25.50;59.40;;;;;;6038780;23;20442;-80
2023/06/06 10:48:46;;;;;;;4.72;4.32;;;25.60;58.20;;;;;;6037619;23;20387;-80
2023/06/06 10:51:49;;;;;;;6.10;5.50;;;25.80;56.50;;;;;;6038827;23;20383;-80
2023/06/06 10:54:21;;;;;;;6.90;6.28;;;25.90;57.60;;;;;;5947334;24;20758;-80
2023/06/06 10:56:52;;;;;;;5.60;5.10;;;26.00;59.00;;;;;;6020353;23;20383;-80
2023/06/06 10:59:31;;;;;;;5.15;4.65;;;26.20;55.70;;;;;;6038253;23;20708;-79
2023/06/06 11:01:58;;;;;;;5.20;4.70;;;26.20;55.20;;;;;;6062884;23;20380;-80
2023/06/06 11:04:27;;;;;;;5.45;4.95;;;26.40;56.30;;;;;;6038281;23;20529;-79
2023/06/06 11:07:00;;;;;;;6.90;6.20;;;26.50;56.50;;;;;;6037773;23;20383;-81
2023/06/06 11:09:32;;;;;;;6.73;6.10;;;26.70;57.60;;;;;;6038372;23;20376;-79
2023/06/06 11:12:14;;;;;;;6.45;5.85;;;26.80;55.80;;;;;;6062332;23;20770;-80
2023/06/06 11:15:07;;;;;;;4.45;4.05;;;26.60;52.70;;;;;;6038450;23;20709;-80
2023/06/06 11:17:43;;;;;;;4.05;3.67;;;26.60;54.50;;;;;;6037905;23;20395;-80
2023/06/06 11:20:18;;;;;;;4.32;3.92;;;26.60;53.80;;;;;;6037060;23;20893;-80
2023/06/06 11:23:02;;;;;;;5.07;4.32;;;26.70;52.00;;;;;;6038798;23;20395;-80
2023/06/06 11:25:35;;;;;;;4.30;3.90;;;26.80;51.10;;;;;;6037703;23;20439;-80
2023/06/06 11:28:02;;;;;;;5.53;4.93;;;26.90;51.30;;;;;;6038551;23;20727;-80
2023/06/06 11:30:33;;;;;;;5.10;4.60;;;26.80;52.90;;;;;;6037240;23;20394;-80
2023/06/06 11:33:01;;;;;;;6.07;5.47;;;26.80;50.30;;;;;;6061377;23;20505;-80
2023/06/06 11:35:28;;;;;;;5.25;4.72;;;26.60;52.90;;;;;;6037263;23;20721;-80
2023/06/06 11:37:56;;;;;;;5.93;5.43;;;26.50;53.70;;;;;;6038162;23;20730;-80
2023/06/06 11:40:26;;;;;;;4.80;4.40;;;26.40;52.80;;;;;;6062463;23;20383;-80
2023/06/06 11:42:53;;;;;;;5.60;4.40;;;26.20;54.70;;;;;;6038070;23;20443;-80
2023/06/06 11:45:21;;;;;;;5.40;4.90;;;26.20;53.70;;;;;;6037240;23;20391;-81
2023/06/06 11:47:51;;;;;;;4.43;4.03;;;26.20;52.70;;;;;;6038103;23;20390;-80
2023/06/06 11:50:32;;;;;;;5.15;4.60;;;26.30;53.50;;;;;;6039955;23;20410;-81
2023/06/06 11:53:00;;;;;;;5.22;4.57;;;26.40;54.10;;;;;;6037733;23;20383;-80
2023/06/06 11:55:37;;;;;;;4.43;4.03;;;26.40;55.30;;;;;;6037237;23;20393;-81
2023/06/06 11:58:04;;;;;;;3.55;3.25;;;26.40;54.10;;;;;;6037879;23;20730;-80
2023/06/06 12:00:31;;;;;;;2.63;2.43;;;26.30;52.30;;;;;;6037725;23;20442;-81
2023/06/06 12:02:59;;;;;;;3.80;3.47;;;26.20;55.00;;;;;;6037644;23;20726;-80
2023/06/06 12:05:28;;;;;;;3.63;3.33;;;26.30;54.70;;;;;;6037076;23;20470;-80
2023/06/06 12:07:59;;;;;;;3.88;3.38;;;26.40;55.70;;;;;;6037470;23;20385;-80
2023/06/06 12:10:30;;;;;;;3.30;3.00;;;26.80;54.60;;;;;;6037538;23;20387;-80
2023/06/06 12:12:58;;;;;;;2.92;2.70;;;26.90;53.20;;;;;;6037949;23;20390;-80
2023/06/06 12:15:49;;;;;;;3.58;2.80;;;27.00;53.30;;;;;;6037008;23;20778;-81
2023/06/06 12:18:16;;;;;;;3.83;3.28;;;27.00;52.60;;;;;;6036982;23;20474;-81
2023/06/06 12:20:45;;;;;;;3.33;2.90;;;27.10;51.60;;;;;;6037862;23;20459;-80
2023/06/06 12:23:28;;;;;;;4.85;4.35;;;27.10;53.00;;;;;;6038304;23;20383;-81
2023/06/06 12:25:59;;;;;;;4.47;3.67;;;27.20;50.70;;;;;;6035633;23;20872;-81
2023/06/06 12:28:26;;;;;;;4.55;3.47;;;27.10;52.60;;;;;;6037410;23;20446;-81
2023/06/06 12:30:54;;;;;;;4.40;3.50;;;27.00;52.20;;;;;;6036913;23;20379;-80
2023/06/06 12:33:22;;;;;;;5.15;3.20;;;26.70;50.10;;;;;;6037915;23;20389;-80
2023/06/06 12:35:48;;;;;;;3.75;3.22;;;26.70;54.90;;;;;;6061491;23;20383;-81
2023/06/06 12:38:19;;;;;;;3.28;2.97;;;26.90;52.60;;;;;;6037785;23;20443;-80
2023/06/06 12:40:55;;;;;;;2.65;2.42;;;27.00;51.00;;;;;;6036525;23;20474;-80
2023/06/06 12:43:22;;;;;;;2.47;2.30;;;27.20;51.00;;;;;;6037564;23;20443;-80
2023/06/06 12:45:49;;;;;;;2.50;2.30;;;27.30;50.90;;;;;;6036637;23;20873;-81
2023/06/06 12:48:22;;;;;;;2.83;2.58;;;27.80;52.10;;;;;;6037488;23;20430;-80
2023/06/06 12:50:49;;;;;;;2.60;2.40;;;28.00;49.20;;;;;;6036798;23;20721;-81
2023/06/06 12:53:18;;;;;;;3.40;3.03;;;28.10;48.40;;;;;;6037647;23;20387;-80
2023/06/06 12:55:45;;;;;;;2.90;2.55;;;28.20;47.00;;;;;;6060544;23;20427;-80
2023/06/06 12:58:12;;;;;;;3.67;2.75;;;28.10;47.90;;;;;;6036758;23;20386;-80
2023/06/06 13:00:39;;;;;;;2.43;2.20;;;28.10;49.50;;;;;;6060890;23;20391;-80
2023/06/06 13:03:09;;;;;;;3.50;3.20;;;28.20;48.30;;;;;;6037207;23;20750;-80
2023/06/06 13:05:36;;;;;;;3.97;3.67;;;28.20;48.30;;;;;;6061476;23;20717;-80
2023/06/06 13:08:03;;;;;;;4.43;3.80;;;28.10;49.10;;;;;;6037192;23;20729;-80
2023/06/06 13:10:30;;;;;;;3.65;3.10;;;28.10;50.00;;;;;;6037396;23;20455;-80
2023/06/06 13:12:57;;;;;;;3.78;3.38;;;28.00;49.30;;;;;;6036618;23;20705;-80
2023/06/06 13:15:27;;;;;;;4.40;3.00;;;28.20;48.80;;;;;;6037126;23;20386;-80
2023/06/06 13:17:54;;;;;;;3.55;3.25;;;28.10;49.80;;;;;;6036512;23;20379;-80
2023/06/06 13:20:21;;;;;;;5.15;4.53;;;28.10;49.20;;;;;;6037450;23;20710;-80
2023/06/06 13:22:48;;;;;;;3.17;2.85;;;28.10;47.90;;;;;;6037143;23;20708;-80
2023/06/06 13:25:15;;;;;;;3.30;2.92;;;28.10;49.60;;;;;;6037367;23;20393;-80
2023/06/06 13:27:42;;;;;;;3.20;2.90;;;28.10;47.80;;;;;;6037056;23;20438;-81
2023/06/06 13:30:09;;;;;;;3.05;2.85;;;28.20;48.40;;;;;;6037190;23;20378;-80
2023/06/06 13:32:36;;;;;;;4.63;3.40;;;28.20;47.90;;;;;;6036306;23;20736;-80
2023/06/06 16:21:42;;;;;;;6.93;5.57;;;28.80;44.50;;;;;;6073439;22;2146897;-75
2023/06/06 16:24:09;;;;;;;6.10;5.60;;;28.70;45.00;;;;;;6088462;23;20732;-75
2023/06/06 16:26:37;;;;;;;7.35;4.65;;;28.60;44.90;;;;;;6090460;23;20393;-76
2023/06/06 16:29:04;;;;;;;5.70;5.20;;;28.50;45.60;;;;;;6088568;23;20381;-76
2023/06/06 16:31:31;;;;;;;6.03;5.53;;;28.40;46.30;;;;;;6089482;23;20413;-77
2023/06/06 16:33:59;;;;;;;7.28;6.53;;;28.50;45.60;;;;;;6088705;23;20421;-77
2023/06/06 16:36:25;;;;;;;6.65;5.95;;;28.40;45.10;;;;;;6090693;23;20713;-76
2023/06/06 16:38:52;;;;;;;7.32;6.63;;;28.40;46.10;;;;;;6089138;23;21208;-77
2023/06/06 16:41:21;;;;;;;7.18;5.68;;;28.40;46.40;;;;;;6089045;23;20688;-77
2023/06/06 16:43:48;;;;;;;7.40;6.28;;;28.40;46.50;;;;;;6089453;23;20441;-77
2023/06/06 16:46:16;;;;;;;5.93;5.32;;;28.40;46.60;;;;;;6088853;23;20378;-77
2023/06/06 16:48:43;;;;;;;6.47;5.82;;;28.30;46.90;;;;;;6091030;23;20383;-76
2023/06/06 16:51:10;;;;;;;7.18;5.57;;;28.50;46.30;;;;;;6089409;23;20382;-76
2023/06/06 16:53:37;;;;;;;6.72;5.93;;;28.40;46.50;;;;;;6113829;23;21013;-76
2023/06/06 16:56:04;;;;;;;7.28;6.57;;;28.50;47.00;;;;;;6087805;23;20384;-75
2023/06/06 16:58:31;;;;;;;8.47;7.67;;;28.50;46.30;;;;;;6088612;23;20709;-76
2023/06/06 17:00:57;;;;;;;8.00;7.20;;;28.50;45.80;;;;;;6088546;23;20385;-77
2023/06/06 17:03:24;;;;;;;8.35;7.28;;;28.60;46.20;;;;;;6082826;23;20451;-76
2023/06/06 17:05:51;;;;;;;7.30;6.60;;;28.60;45.40;;;;;;6071780;23;20388;-76
2023/06/06 17:08:19;;;;;;;7.70;7.00;;;28.60;46.20;;;;;;6087309;23;20882;-75
2023/06/06 17:10:46;;;;;;;8.30;7.50;;;28.90;44.80;;;;;;6090405;23;20381;-75
2023/06/06 17:13:15;;;;;;;8.68;7.32;;;28.90;44.10;;;;;;6087544;23;20452;-75
2023/06/06 17:15:42;;;;;;;7.55;6.85;;;28.90;45.00;;;;;;6090725;23;20764;-75
2023/06/06 17:18:09;;;;;;;7.85;7.10;;;28.70;45.90;;;;;;6088508;23;20433;-75
2023/06/06 17:20:37;;;;;;;9.80;8.80;;;28.40;47.20;;;;;;6090847;23;20389;-75
2023/06/06 17:23:03;;;;;;;8.63;7.78;;;28.00;46.70;;;;;;6117340;23;20725;-75
2023/06/06 17:25:30;;;;;;;9.00;8.10;;;27.80;48.30;;;;;;6118248;23;20761;-75
2023/06/06 17:28:16;;;;;;;9.27;8.37;;;27.50;47.70;;;;;;6117328;23;20387;-75